Página principal
METAR-TAF:

METAR-TAF

Aeroportos :

Koumac, Nova Caledónia

latitude: 20-34S, longitude: 164-17E, altura: 23 m

METAR: em falta

Hora: 15:40 (04:40 UTC)

Previsão

O boletim foi feito há 5 horas e 40 minutos, às 23:00 UTC
Previsão válida de 23 às 00 UTC a 23 às 24 UTC
Vento 14 kt de su-sudoeste
Visibilidade 10 km ou mais
Nuvens dispersasa uma altura de 4500 ft
Nuvens fragmentadasa uma altura de 6000 ft
Probabilidade 40% :
Temporariamente
de 23 às 02 UTC a 23 às 06 UTC
Nuvens dispersasa uma altura de 3000 ft, Cumulus congestus.
aguaceiros de chuva
Tornando-se
de 23 às 07 UTC a 23 às 10 UTC
Vento 5 kt de es-nordeste
Tornando-se
de 23 às 22 UTC a 23 às 24 UTC
Vento 12 kt de sul

TAF: NWWK 222300Z 2300/2324 20014KT 9999 SCT045 BKN060 PROB40 TEMPO 2302/2306 SHRA SCT030TCU BECMG 2307/2310 07005KT BECMG 2322/2324 19012KT

Observações e previsões do tempo de mais de 4000 aeroportos (mensagens METAR e TAF).

As estações disponíveis são os pontos amarelos e vermelhos sobre o mapa.

Mova o rato sobre o mapa para ver o nome da estação.

Depois clique no ponto para visualizar as observações e previsões meteorológicas.

Para alterar o mapa : clique nos botões verdes com uma cruz preta para aumentar o zoom; no botão verde com uma pitada de zoom; ou nas setas verdes para mapas adjacentes.


METAR-TAF: